createdAt,value
2018-03-20T00:00:35.149Z,4.00
2018-03-20T00:03:03.471Z,4.02
2018-03-20T00:05:31.812Z,4.00
2018-03-20T00:08:00.194Z,4.01
2018-03-20T00:10:28.521Z,4.02
2018-03-20T00:12:57.176Z,4.03
2018-03-20T00:15:25.529Z,4.05
2018-03-20T00:17:54.631Z,4.09
2018-03-20T00:20:23.716Z,4.12
2018-03-20T00:22:52.067Z,4.15
2018-03-20T00:25:20.390Z,4.17
2018-03-20T00:27:49.506Z,4.20
2018-03-20T00:30:17.944Z,4.26
2018-03-20T00:32:46.507Z,4.29
2018-03-20T00:35:14.877Z,4.34
2018-03-20T00:37:43.297Z,4.34
2018-03-20T00:40:11.618Z,4.40
2018-03-20T00:42:40.715Z,4.43
2018-03-20T00:45:09.075Z,4.47
2018-03-20T00:47:37.387Z,4.46
2018-03-20T00:50:06.580Z,4.47
2018-03-20T00:52:35.763Z,4.50
2018-03-20T00:55:04.089Z,4.49
2018-03-20T01:00:12.395Z,4.51
2018-03-20T01:02:41.480Z,4.54
2018-03-20T01:05:10.599Z,4.56
2018-03-20T01:07:38.935Z,4.55
2018-03-20T01:10:07.299Z,4.55
2018-03-20T01:12:35.680Z,4.59
2018-03-20T01:15:03.983Z,4.63
2018-03-20T01:17:32.326Z,4.67
2018-03-20T01:20:00.653Z,4.72
2018-03-20T01:22:28.959Z,4.79
2018-03-20T01:24:57.272Z,4.83
2018-03-20T01:27:25.591Z,4.88
2018-03-20T01:29:54.008Z,4.90
2018-03-20T01:32:22.338Z,4.92
2018-03-20T01:34:50.719Z,4.94
2018-03-20T01:37:19.027Z,4.96
2018-03-20T01:39:47.356Z,4.97
2018-03-20T01:42:16.438Z,4.99
2018-03-20T01:44:45.545Z,4.99
2018-03-20T01:47:13.879Z,4.97
2018-03-20T01:49:42.207Z,4.99
2018-03-20T01:52:11.377Z,5.01
2018-03-20T01:54:39.717Z,5.02
2018-03-20T01:57:08.037Z,5.05
2018-03-20T01:59:36.365Z,5.09
2018-03-20T02:02:05.462Z,5.13
2018-03-20T02:04:34.536Z,5.16
2018-03-20T02:07:03.692Z,5.22
2018-03-20T02:09:32.005Z,5.27
2018-03-20T02:12:00.313Z,5.32
2018-03-20T02:14:29.442Z,5.37
2018-03-20T02:16:57.771Z,5.42
2018-03-20T02:19:26.077Z,5.42
2018-03-20T02:21:54.415Z,5.41
2018-03-20T02:24:22.721Z,5.40
2018-03-20T02:26:51.051Z,5.39
2018-03-20T02:29:19.359Z,5.41
2018-03-20T02:31:47.672Z,5.43
2018-03-20T02:34:16.030Z,5.44
2018-03-20T02:36:44.346Z,5.47
2018-03-20T02:39:12.766Z,5.51
2018-03-20T02:41:41.076Z,5.54
2018-03-20T02:44:09.439Z,5.56
2018-03-20T02:46:37.761Z,5.60
2018-03-20T02:49:06.071Z,5.61
2018-03-20T02:51:35.154Z,5.62
2018-03-20T02:54:03.461Z,5.61
2018-03-20T02:56:32.558Z,5.64
2018-03-20T02:59:01.639Z,5.64
2018-03-20T03:01:29.963Z,5.61
2018-03-20T03:03:58.265Z,5.60
2018-03-20T03:06:26.591Z,5.60
2018-03-20T03:08:55.675Z,5.62
2018-03-20T03:11:23.991Z,5.63
2018-03-20T03:13:53.069Z,5.63
2018-03-20T03:16:21.383Z,5.65
2018-03-20T03:18:49.683Z,5.67
2018-03-20T03:21:17.986Z,5.71
2018-03-20T03:23:47.047Z,5.72
2018-03-20T03:26:15.360Z,5.75
2018-03-20T03:28:43.691Z,5.77
2018-03-20T03:31:12.782Z,5.78
2018-03-20T03:33:41.971Z,5.80
2018-03-20T03:36:10.289Z,5.83
2018-03-20T03:38:38.619Z,5.84
2018-03-20T03:41:06.952Z,5.84
2018-03-20T03:43:35.281Z,5.84
2018-03-20T03:46:03.615Z,5.80
2018-03-20T03:48:31.943Z,5.81
2018-03-20T03:51:00.260Z,5.82
2018-03-20T03:53:29.356Z,5.78
2018-03-20T03:55:57.678Z,5.74
2018-03-20T03:58:26.003Z,5.73
2018-03-20T04:00:54.333Z,5.74
2018-03-20T04:03:22.644Z,5.71
2018-03-20T04:05:50.947Z,5.71
2018-03-20T04:08:19.277Z,5.70
2018-03-20T04:10:47.612Z,5.67
2018-03-20T04:13:15.935Z,5.62
2018-03-20T04:15:44.253Z,5.59
2018-03-20T04:18:12.631Z,5.55
2018-03-20T04:20:41.733Z,5.50
2018-03-20T04:23:10.071Z,5.43
2018-03-20T04:25:39.185Z,5.37
2018-03-20T04:28:08.255Z,5.29
2018-03-20T04:30:36.561Z,5.16
2018-03-20T04:33:05.723Z,5.00
2018-03-20T04:35:34.043Z,4.83
2018-03-20T04:38:03.113Z,4.74
2018-03-20T04:40:31.515Z,4.62
2018-03-20T04:43:00.620Z,4.52
2018-03-20T04:45:29.736Z,4.45
2018-03-20T04:47:58.051Z,4.37
2018-03-20T04:50:26.376Z,4.30
2018-03-20T04:52:55.450Z,4.18
2018-03-20T04:55:23.790Z,4.17
2018-03-20T04:57:52.083Z,4.17
2018-03-20T05:00:20.401Z,4.20
2018-03-20T05:02:48.710Z,4.20
2018-03-20T05:05:17.795Z,4.15
2018-03-20T05:07:46.100Z,4.05
2018-03-20T05:10:15.181Z,3.99
2018-03-20T05:12:43.485Z,3.86
2018-03-20T05:15:11.826Z,3.85
2018-03-20T05:17:41.956Z,3.91
2018-03-20T05:33:38.751Z,3.67
2018-03-20T05:36:07.073Z,3.68
2018-03-20T05:38:35.376Z,3.61
2018-03-20T05:41:04.467Z,3.53
2018-03-20T05:43:32.800Z,3.49
2018-03-20T05:46:01.111Z,3.47
2018-03-20T05:48:35.673Z,3.53
2018-03-20T05:54:02.443Z,3.85
2018-03-20T05:56:30.770Z,3.98
2018-03-20T05:58:59.060Z,4.10
2018-03-20T06:01:28.127Z,4.22
2018-03-20T06:03:56.468Z,4.30
2018-03-20T06:06:24.766Z,4.32
2018-03-20T06:08:53.102Z,4.36
2018-03-20T06:11:21.425Z,4.33
2018-03-20T06:13:49.788Z,4.29
2018-03-20T06:16:18.862Z,4.35
2018-03-20T06:18:47.158Z,4.32
2018-03-20T06:21:16.410Z,4.30
2018-03-20T06:23:44.946Z,4.29
2018-03-20T06:26:14.034Z,4.34
2018-03-20T06:28:42.392Z,4.34
2018-03-20T06:31:10.720Z,4.38
2018-03-20T06:33:39.802Z,4.45
2018-03-20T06:36:08.108Z,4.50
2018-03-20T06:38:36.544Z,4.54
2018-03-20T06:41:04.875Z,4.57
2018-03-20T06:43:33.903Z,4.63
2018-03-20T06:46:02.217Z,4.69
2018-03-20T06:48:30.512Z,4.75
2018-03-20T06:50:59.602Z,4.78
2018-03-20T06:53:27.952Z,4.81
2018-03-20T06:55:56.318Z,4.88
2018-03-20T06:58:24.611Z,4.92
2018-03-20T07:00:52.909Z,4.96
2018-03-20T07:03:21.235Z,5.03
2018-03-20T07:05:50.292Z,5.09
2018-03-20T07:08:18.616Z,5.13
2018-03-20T07:10:46.944Z,5.20
2018-03-20T07:13:15.246Z,5.30
2018-03-20T07:15:43.536Z,5.33
2018-03-20T07:18:11.870Z,5.38
2018-03-20T07:20:40.188Z,5.50
2018-03-20T07:23:08.522Z,5.57
2018-03-20T07:25:36.832Z,5.67
2018-03-20T07:28:05.177Z,5.72
2018-03-20T07:30:34.257Z,5.83
2018-03-20T07:33:02.556Z,5.89
2018-03-20T07:35:31.626Z,5.95
2018-03-20T07:37:59.958Z,5.97
2018-03-20T07:40:28.274Z,6.02
2018-03-20T07:42:56.588Z,6.10
2018-03-20T07:45:25.689Z,6.17
2018-03-20T07:47:54.005Z,6.19
2018-03-20T07:50:22.317Z,6.31
2018-03-20T07:52:50.636Z,6.37
2018-03-20T07:55:19.693Z,6.40
2018-03-20T07:57:48.025Z,6.54
2018-03-20T08:00:17.112Z,6.49
2018-03-20T08:02:46.216Z,6.52
2018-03-20T08:05:15.310Z,6.61
2018-03-20T08:07:43.679Z,6.65
2018-03-20T08:10:12.033Z,6.68
2018-03-20T08:12:40.360Z,6.74
2018-03-20T08:15:09.441Z,6.86
2018-03-20T08:17:37.750Z,6.82
2018-03-20T08:20:06.828Z,6.88
2018-03-20T08:22:35.152Z,6.98
2018-03-20T08:25:03.466Z,6.99
2018-03-20T08:27:31.805Z,7.01
2018-03-20T08:30:00.892Z,7.10
2018-03-20T08:32:29.976Z,7.15
2018-03-20T08:34:58.331Z,7.17
2018-03-20T08:37:26.641Z,7.37
2018-03-20T08:39:54.961Z,7.40
2018-03-20T08:42:23.271Z,7.48
2018-03-20T08:44:51.573Z,7.52
2018-03-20T08:47:19.863Z,7.59
2018-03-20T08:49:48.839Z,7.65
2018-03-20T08:52:17.134Z,7.72
2018-03-20T08:54:45.458Z,7.78
2018-03-20T08:57:14.556Z,7.88
2018-03-20T08:59:43.712Z,7.97
2018-03-20T09:02:12.047Z,8.05
2018-03-20T09:04:41.132Z,8.10
2018-03-20T09:07:10.238Z,8.20
2018-03-20T09:09:39.334Z,8.28
2018-03-20T09:12:07.668Z,8.37
2018-03-20T09:14:35.970Z,8.48
2018-03-20T09:17:04.286Z,8.54
2018-03-20T09:19:32.615Z,8.60
2018-03-20T09:22:00.902Z,8.71
2018-03-20T09:24:29.248Z,8.80
2018-03-20T09:26:57.566Z,8.91
2018-03-20T09:29:25.914Z,8.99
2018-03-20T09:31:54.223Z,9.08
2018-03-20T09:34:22.520Z,9.20
2018-03-20T09:36:50.834Z,9.32
2018-03-20T09:39:19.904Z,9.38
2018-03-20T09:41:48.811Z,9.40
2018-03-20T09:44:17.150Z,9.47
2018-03-20T09:46:46.106Z,9.57
2018-03-20T09:49:15.173Z,9.63
2018-03-20T09:51:43.484Z,9.73
2018-03-20T09:54:12.022Z,9.82
2018-03-20T09:56:40.572Z,9.90
2018-03-20T09:59:09.643Z,10.01
2018-03-20T10:01:38.740Z,9.92
2018-03-20T10:04:07.050Z,9.94
2018-03-20T10:06:36.130Z,10.03
2018-03-20T10:09:04.431Z,10.07
2018-03-20T10:11:33.529Z,10.07
2018-03-20T10:14:02.662Z,9.99
2018-03-20T10:16:31.989Z,10.08
2018-03-20T10:21:34.976Z,10.23
2018-03-20T10:24:03.356Z,10.30
2018-03-20T10:26:31.821Z,10.25
2018-03-20T10:29:00.916Z,10.34
2018-03-20T10:31:30.080Z,10.42
2018-03-20T10:33:58.411Z,10.53
2018-03-20T10:36:26.730Z,10.51
2018-03-20T10:38:55.028Z,10.49
2018-03-20T10:41:23.361Z,10.55
2018-03-20T10:43:51.730Z,10.64
2018-03-20T10:46:20.016Z,10.65
2018-03-20T10:48:50.588Z,10.65
2018-03-20T10:51:18.917Z,10.78
2018-03-20T10:53:47.237Z,10.87
2018-03-20T10:56:15.582Z,10.88
2018-03-20T10:58:44.681Z,10.96
2018-03-20T11:01:18.602Z,11.10
2018-03-20T11:03:47.700Z,11.09
2018-03-20T11:06:16.773Z,11.16
2018-03-20T11:08:45.092Z,11.31
2018-03-20T11:11:13.410Z,11.48
2018-03-20T11:13:41.737Z,11.61
2018-03-20T11:16:10.848Z,11.71
2018-03-20T11:18:39.934Z,11.82
2018-03-20T11:21:08.280Z,11.95
2018-03-20T11:23:38.044Z,12.11
2018-03-20T11:26:07.139Z,12.09
2018-03-20T11:28:36.203Z,12.06
2018-03-20T11:31:04.551Z,12.08
2018-03-20T11:33:32.865Z,12.07
2018-03-20T11:36:01.202Z,12.20
2018-03-20T11:38:29.517Z,12.36
2018-03-20T11:40:57.820Z,12.42
2018-03-20T11:43:26.155Z,12.67
2018-03-20T11:51:12.706Z,13.35
2018-03-20T11:53:41.288Z,13.86
2018-03-20T11:56:09.596Z,14.16
2018-03-20T11:58:37.917Z,14.69
2018-03-20T12:01:06.999Z,15.06
2018-03-20T12:03:35.342Z,15.53
2018-03-20T12:06:03.655Z,15.97
2018-03-20T12:08:49.877Z,16.26
2018-03-20T12:11:18.944Z,16.67
2018-03-20T12:13:47.252Z,17.22
2018-03-20T12:16:15.646Z,17.80
2018-03-20T12:18:44.710Z,18.41
2018-03-20T12:21:13.036Z,18.97
2018-03-20T12:23:41.367Z,19.53
2018-03-20T12:26:09.719Z,20.41
2018-03-20T12:28:38.030Z,21.08
2018-03-20T12:31:06.348Z,21.29
2018-03-20T12:33:35.425Z,21.74
2018-03-20T12:36:03.774Z,22.19
2018-03-20T12:38:32.084Z,22.44
2018-03-20T12:41:00.444Z,22.95
2018-03-20T12:43:28.759Z,23.19
2018-03-20T12:45:57.092Z,23.55
2018-03-20T12:48:25.384Z,23.92
2018-03-20T12:50:53.714Z,24.20
2018-03-20T12:53:22.027Z,24.64
2018-03-20T12:55:50.327Z,25.40
2018-03-20T12:58:18.675Z,26.05
2018-03-20T13:00:48.626Z,26.18
2018-03-20T13:03:17.041Z,26.24
2018-03-20T13:05:45.360Z,26.34
2018-03-20T13:08:14.457Z,26.82
2018-03-20T13:10:42.786Z,26.91
2018-03-20T13:13:11.442Z,27.44
2018-03-20T13:15:39.709Z,27.46
2018-03-20T13:18:08.808Z,27.54
2018-03-20T13:20:37.885Z,27.92
2018-03-20T13:23:06.213Z,28.02
2018-03-20T13:25:34.580Z,28.30
2018-03-20T13:28:03.684Z,28.26
2018-03-20T13:30:32.761Z,28.38
2018-03-20T13:33:01.087Z,28.58
2018-03-20T13:35:29.408Z,28.67
2018-03-20T13:37:57.730Z,28.82
2018-03-20T13:40:27.584Z,29.11
2018-03-20T13:42:55.905Z,29.36
2018-03-20T13:45:24.234Z,29.73
2018-03-20T13:47:52.570Z,29.84
2018-03-20T13:50:20.959Z,30.10
2018-03-20T13:52:49.449Z,30.29
2018-03-20T13:55:17.652Z,30.16
2018-03-20T13:57:45.954Z,29.89
2018-03-20T14:00:14.259Z,29.54
2018-03-20T14:02:42.599Z,29.18
2018-03-20T14:05:11.646Z,29.26
2018-03-20T14:07:40.517Z,29.59
2018-03-20T14:10:08.821Z,29.92
2018-03-20T14:12:37.372Z,29.85
2018-03-20T14:15:06.040Z,29.88
2018-03-20T14:17:35.226Z,29.73
2018-03-20T14:20:03.851Z,29.64
2018-03-20T14:22:32.175Z,29.84
2018-03-20T14:25:00.489Z,29.66
2018-03-20T14:27:29.631Z,29.74
2018-03-20T14:29:57.937Z,29.91
2018-03-20T14:32:26.262Z,29.95
2018-03-20T14:34:55.349Z,29.85
2018-03-20T14:37:24.418Z,29.43
2018-03-20T14:39:52.736Z,29.13
2018-03-20T14:42:21.803Z,28.92
2018-03-20T14:44:50.093Z,29.20
2018-03-20T14:47:18.411Z,28.78
2018-03-20T14:49:46.721Z,28.89
2018-03-20T14:52:15.115Z,29.18
2018-03-20T14:54:43.494Z,29.03
2018-03-20T14:57:11.794Z,28.88
2018-03-20T14:59:40.171Z,28.70
2018-03-20T15:02:08.492Z,28.46
2018-03-20T15:04:37.563Z,28.06
2018-03-20T15:07:05.865Z,27.85
2018-03-20T15:09:34.189Z,28.11
2018-03-20T15:12:02.489Z,28.24
2018-03-20T15:14:30.794Z,28.27
2018-03-20T15:16:59.116Z,27.98
2018-03-20T15:19:27.444Z,28.00
2018-03-20T15:21:55.749Z,27.98
2018-03-20T15:24:24.051Z,27.88
2018-03-20T15:26:53.133Z,28.05
2018-03-20T15:29:21.458Z,28.11
2018-03-20T15:31:49.766Z,27.83
2018-03-20T15:34:18.085Z,26.91
2018-03-20T15:36:46.489Z,27.12
2018-03-20T15:39:14.812Z,27.22
2018-03-20T15:41:43.113Z,27.41
2018-03-20T15:44:11.437Z,27.54
2018-03-20T15:46:39.740Z,27.66
2018-03-20T15:49:08.057Z,27.55
2018-03-20T15:51:36.363Z,27.08
2018-03-20T15:54:05.471Z,26.77
2018-03-20T15:56:34.545Z,26.84
2018-03-20T15:59:02.851Z,26.97
2018-03-20T16:01:31.916Z,26.77
2018-03-20T16:04:00.267Z,26.24
2018-03-20T16:06:28.569Z,25.84
2018-03-20T16:08:56.883Z,25.93
2018-03-20T16:11:25.201Z,25.72
2018-03-20T16:13:53.508Z,25.62
2018-03-20T16:16:21.825Z,25.40
2018-03-20T16:18:50.161Z,25.16
2018-03-20T16:21:18.487Z,24.91
2018-03-20T16:23:46.801Z,24.70
2018-03-20T16:26:15.891Z,24.57
2018-03-20T16:28:44.989Z,24.11
2018-03-20T16:31:14.108Z,24.06
2018-03-20T16:33:42.418Z,24.00
2018-03-20T16:36:10.721Z,23.88
2018-03-20T16:38:39.027Z,22.87
2018-03-20T16:41:08.133Z,21.59
2018-03-20T16:43:37.195Z,21.31
2018-03-20T16:46:05.525Z,21.05
2018-03-20T16:48:34.611Z,20.86
2018-03-20T16:51:03.727Z,20.63
2018-03-20T16:53:32.844Z,19.94
2018-03-20T16:56:01.172Z,19.08
2018-03-20T16:58:29.484Z,18.01
2018-03-20T17:00:58.584Z,16.95
2018-03-20T17:03:27.887Z,16.12
2018-03-20T17:05:57.013Z,15.16
2018-03-20T17:08:25.317Z,14.38
2018-03-20T17:10:53.624Z,13.64
2018-03-20T17:13:21.953Z,13.01
2018-03-20T17:15:50.255Z,12.38
2018-03-20T17:18:18.593Z,11.93
2018-03-20T17:20:47.673Z,11.66
2018-03-20T17:23:15.983Z,11.40
2018-03-20T17:25:45.103Z,11.05
2018-03-20T17:28:13.445Z,10.74
2018-03-20T17:30:41.769Z,10.46
2018-03-20T17:33:10.107Z,10.20
2018-03-20T17:35:38.421Z,9.92
2018-03-20T17:38:07.424Z,9.67
2018-03-20T17:40:35.719Z,9.44
2018-03-20T17:43:04.033Z,9.18
2018-03-20T17:45:32.329Z,8.96
2018-03-20T17:48:00.656Z,8.78
2018-03-20T17:50:28.989Z,8.57
2018-03-20T17:52:57.331Z,8.36
2018-03-20T17:55:25.676Z,8.15
2018-03-20T17:57:54.763Z,7.97
2018-03-20T18:00:23.094Z,7.87
2018-03-20T18:02:51.419Z,7.68
2018-03-20T18:05:19.754Z,7.51
2018-03-20T18:07:48.063Z,7.28
2018-03-20T18:10:16.401Z,7.16
2018-03-20T18:12:44.786Z,7.02
2018-03-20T18:15:13.119Z,6.90
2018-03-20T18:17:41.460Z,6.80
2018-03-20T18:20:09.853Z,6.66
2018-03-20T18:22:38.202Z,6.54
2018-03-20T18:25:07.295Z,6.41
2018-03-20T18:27:36.395Z,6.34
2018-03-20T18:30:04.739Z,6.22
2018-03-20T18:32:33.095Z,6.14
2018-03-20T18:35:01.415Z,6.04
2018-03-20T18:37:29.834Z,5.98
2018-03-20T18:39:58.940Z,5.91
2018-03-20T18:42:28.065Z,5.87
2018-03-20T18:44:56.412Z,5.81
2018-03-20T18:47:25.546Z,5.72
2018-03-20T18:49:53.927Z,5.67
2018-03-20T18:52:22.285Z,5.59
2018-03-20T18:54:51.388Z,5.58
2018-03-20T18:57:20.509Z,5.48
2018-03-20T18:59:48.840Z,5.44
2018-03-20T19:02:17.487Z,5.39
2018-03-20T19:04:45.883Z,5.34
2018-03-20T19:07:14.951Z,5.29
2018-03-20T19:09:44.065Z,5.24
2018-03-20T19:12:12.410Z,5.25
2018-03-20T19:14:40.824Z,5.21
2018-03-20T19:17:09.158Z,5.11
2018-03-20T19:19:37.500Z,5.06
2018-03-20T19:22:05.912Z,5.00
2018-03-20T19:24:34.286Z,4.97
2018-03-20T19:27:02.698Z,4.97
2018-03-20T19:29:31.066Z,4.92
2018-03-20T19:31:59.431Z,4.89
2018-03-20T19:34:27.790Z,4.85
2018-03-20T19:36:56.156Z,4.80
2018-03-20T19:39:25.379Z,4.78
2018-03-20T19:41:53.646Z,4.74
2018-03-20T19:44:22.759Z,4.72
2018-03-20T19:46:51.160Z,4.69
2018-03-20T19:49:19.579Z,4.68
2018-03-20T19:51:47.942Z,4.64
2018-03-20T19:54:17.060Z,4.62
2018-03-20T19:56:46.214Z,4.57
2018-03-20T19:59:14.654Z,4.52
2018-03-20T20:01:43.050Z,4.49
2018-03-20T20:04:12.186Z,4.47
2018-03-20T20:06:40.591Z,4.46
2018-03-20T20:09:09.077Z,4.40
2018-03-20T20:11:37.560Z,4.38
2018-03-20T20:14:05.928Z,4.33
2018-03-20T20:16:34.313Z,4.31
2018-03-20T20:19:02.744Z,4.30
2018-03-20T20:21:31.202Z,4.29
2018-03-20T20:23:59.554Z,4.26
2018-03-20T20:26:28.012Z,4.24
2018-03-20T20:28:56.422Z,4.23
2018-03-20T20:31:24.787Z,4.30
2018-03-20T20:33:53.933Z,4.21
2018-03-20T20:36:22.409Z,4.18
2018-03-20T20:38:50.806Z,4.15
2018-03-20T20:41:19.142Z,4.08
2018-03-20T20:43:48.260Z,4.03
2018-03-20T20:46:16.770Z,3.98
2018-03-20T20:48:45.138Z,3.91
2018-03-20T20:51:13.510Z,3.88
2018-03-20T20:53:41.852Z,3.82
2018-03-20T20:56:10.240Z,3.78
2018-03-20T20:58:38.597Z,3.69
2018-03-20T21:01:06.946Z,3.68
2018-03-20T21:03:35.284Z,3.68
2018-03-20T21:06:03.657Z,3.70
2018-03-20T21:08:32.020Z,3.67
2018-03-20T21:11:00.416Z,3.61
2018-03-20T21:13:28.764Z,3.56
2018-03-20T21:15:57.244Z,3.54
2018-03-20T21:18:25.598Z,3.60
2018-03-20T21:20:53.957Z,3.62
2018-03-20T21:23:22.311Z,3.65
2018-03-20T21:25:50.655Z,3.64
2018-03-20T21:28:18.984Z,3.64
2018-03-20T21:30:47.318Z,3.64
2018-03-20T21:33:16.420Z,3.62
2018-03-20T21:35:45.516Z,3.59
2018-03-20T21:38:13.854Z,3.60
2018-03-20T21:40:42.187Z,3.59
2018-03-20T21:43:11.294Z,3.57
2018-03-20T21:45:40.374Z,3.56
2018-03-20T21:48:09.476Z,3.54
2018-03-20T21:50:37.786Z,3.54
2018-03-20T21:53:06.124Z,3.51
2018-03-20T21:55:34.464Z,3.51
2018-03-20T21:58:02.761Z,3.50
2018-03-20T22:00:31.068Z,3.47
2018-03-20T22:02:59.382Z,3.49
2018-03-20T22:05:28.470Z,3.49
2018-03-20T22:07:57.537Z,3.47
2018-03-20T22:10:26.614Z,3.48
2018-03-20T22:12:54.918Z,3.46
2018-03-20T22:15:23.284Z,3.46
2018-03-20T22:17:51.529Z,3.48
2018-03-20T22:20:20.678Z,3.48
2018-03-20T22:22:49.003Z,3.48
2018-03-20T22:25:18.092Z,3.47
2018-03-20T22:27:46.432Z,3.51
2018-03-20T22:30:14.731Z,3.52
2018-03-20T22:32:43.064Z,3.55
2018-03-20T22:35:12.152Z,3.58
2018-03-20T22:37:41.233Z,3.56
2018-03-20T22:40:09.546Z,3.56
2018-03-20T22:42:37.860Z,3.58
2018-03-20T22:45:06.177Z,3.63
2018-03-20T22:47:34.510Z,3.64
2018-03-20T22:50:02.809Z,3.63
2018-03-20T22:52:31.139Z,3.64
2018-03-20T22:55:00.242Z,3.64
2018-03-20T22:57:29.316Z,3.65
2018-03-20T22:59:57.608Z,3.64
2018-03-20T23:02:25.920Z,3.62
2018-03-20T23:04:54.232Z,3.62
2018-03-20T23:07:22.547Z,3.62
2018-03-20T23:09:50.903Z,3.61
2018-03-20T23:12:19.202Z,3.60
2018-03-20T23:14:47.564Z,3.63
2018-03-20T23:17:15.880Z,3.62
2018-03-20T23:19:44.228Z,3.57
2018-03-20T23:22:12.548Z,3.55
2018-03-20T23:24:40.864Z,3.54
2018-03-20T23:27:09.207Z,3.52
2018-03-20T23:29:37.851Z,3.51
2018-03-20T23:32:06.176Z,3.49
2018-03-20T23:34:34.484Z,3.46
2018-03-20T23:37:03.580Z,3.44
2018-03-20T23:39:32.683Z,3.45
2018-03-20T23:42:02.608Z,3.48
2018-03-20T23:44:31.680Z,3.54
2018-03-20T23:46:59.995Z,3.67
2018-03-20T23:49:28.308Z,3.80
2018-03-20T23:51:56.633Z,3.93
2018-03-20T23:54:25.736Z,3.99
2018-03-20T23:56:55.196Z,3.94
2018-03-20T23:59:23.513Z,3.89
